sensor_id;sensor_type;location;lat;lon;timestamp;pressure;altitude;pressure_sealevel;temperature;humidity
62436;BME280;48480;50.252;18.848;2023-05-15T00:00:03;98037.94;;;12.94;80.39
62436;BME280;48480;50.252;18.848;2023-05-15T00:02:49;98036.43;;;12.95;80.44
62436;BME280;48480;50.252;18.848;2023-05-15T00:05:33;98044.20;;;12.96;80.58
62436;BME280;48480;50.252;18.848;2023-05-15T00:08:17;98051.24;;;12.99;80.48
62436;BME280;48480;50.252;18.848;2023-05-15T00:11:01;98047.00;;;13.02;80.49
62436;BME280;48480;50.252;18.848;2023-05-15T00:13:46;98040.49;;;13.03;80.65
62436;BME280;48480;50.252;18.848;2023-05-15T00:16:30;98027.16;;;12.99;80.58
62436;BME280;48480;50.252;18.848;2023-05-15T00:19:14;98021.12;;;12.95;80.68
62436;BME280;48480;50.252;18.848;2023-05-15T00:21:59;98017.96;;;12.94;80.97
62436;BME280;48480;50.252;18.848;2023-05-15T00:24:43;98012.48;;;12.91;80.88
62436;BME280;48480;50.252;18.848;2023-05-15T00:27:27;98007.36;;;12.87;80.98
62436;BME280;48480;50.252;18.848;2023-05-15T00:30:12;98007.67;;;12.84;81.15
62436;BME280;48480;50.252;18.848;2023-05-15T00:32:56;97998.91;;;12.84;81.22
62436;BME280;48480;50.252;18.848;2023-05-15T00:35:41;97994.64;;;12.86;81.45
62436;BME280;48480;50.252;18.848;2023-05-15T00:38:24;97990.11;;;12.86;81.20
62436;BME280;48480;50.252;18.848;2023-05-15T00:41:09;97982.98;;;12.82;81.30
62436;BME280;48480;50.252;18.848;2023-05-15T00:43:56;97977.61;;;12.79;81.30
62436;BME280;48480;50.252;18.848;2023-05-15T00:46:42;97967.95;;;12.77;81.36
62436;BME280;48480;50.252;18.848;2023-05-15T00:49:29;97964.11;;;12.75;81.51
62436;BME280;48480;50.252;18.848;2023-05-15T00:52:16;97963.11;;;12.69;81.50
62436;BME280;48480;50.252;18.848;2023-05-15T00:55:00;97957.30;;;12.68;81.74
62436;BME280;48480;50.252;18.848;2023-05-15T00:57:46;97953.59;;;12.67;81.68
62436;BME280;48480;50.252;18.848;2023-05-15T01:00:32;97949.68;;;12.64;81.81
62436;BME280;48480;50.252;18.848;2023-05-15T01:03:16;97952.40;;;12.60;81.84
62436;BME280;48480;50.252;18.848;2023-05-15T01:06:00;97947.77;;;12.57;81.94
62436;BME280;48480;50.252;18.848;2023-05-15T01:08:45;97947.96;;;12.50;82.03
62436;BME280;48480;50.252;18.848;2023-05-15T01:11:30;97951.16;;;12.44;82.46
62436;BME280;48480;50.252;18.848;2023-05-15T01:14:19;97941.19;;;12.31;82.76
62436;BME280;48480;50.252;18.848;2023-05-15T01:17:03;97943.47;;;12.31;82.95
62436;BME280;48480;50.252;18.848;2023-05-15T01:19:49;97944.87;;;12.29;83.26
62436;BME280;48480;50.252;18.848;2023-05-15T01:22:50;97944.70;;;12.34;83.20
62436;BME280;48480;50.252;18.848;2023-05-15T01:28:56;97945.89;;;12.37;83.33
62436;BME280;48480;50.252;18.848;2023-05-15T01:31:45;97934.38;;;12.40;83.33
62436;BME280;48480;50.252;18.848;2023-05-15T01:34:56;97924.11;;;12.41;83.31
62436;BME280;48480;50.252;18.848;2023-05-15T01:37:47;97917.80;;;12.38;83.47
62436;BME280;48480;50.252;18.848;2023-05-15T01:40:33;97916.56;;;12.36;83.52
62436;BME280;48480;50.252;18.848;2023-05-15T01:43:23;97914.42;;;12.33;83.69
62436;BME280;48480;50.252;18.848;2023-05-15T01:46:16;97913.44;;;12.31;83.77
62436;BME280;48480;50.252;18.848;2023-05-15T01:49:03;97907.66;;;12.25;83.87
62436;BME280;48480;50.252;18.848;2023-05-15T01:51:57;97917.27;;;12.31;84.09
62436;BME280;48480;50.252;18.848;2023-05-15T01:54:45;97915.59;;;12.34;84.18
62436;BME280;48480;50.252;18.848;2023-05-15T01:57:30;97921.48;;;12.35;84.12
62436;BME280;48480;50.252;18.848;2023-05-15T02:00:15;97918.63;;;12.38;84.19
62436;BME280;48480;50.252;18.848;2023-05-15T02:03:05;97914.78;;;12.35;84.05
62436;BME280;48480;50.252;18.848;2023-05-15T02:05:50;97917.80;;;12.38;84.01
62436;BME280;48480;50.252;18.848;2023-05-15T02:08:36;97915.13;;;12.39;84.03
62436;BME280;48480;50.252;18.848;2023-05-15T02:11:21;97919.63;;;12.41;84.20
62436;BME280;48480;50.252;18.848;2023-05-15T02:14:06;97914.26;;;12.44;84.36
62436;BME280;48480;50.252;18.848;2023-05-15T02:16:52;97916.99;;;12.48;84.35
62436;BME280;48480;50.252;18.848;2023-05-15T02:19:37;97917.30;;;12.48;84.10
62436;BME280;48480;50.252;18.848;2023-05-15T02:22:21;97919.95;;;12.50;84.31
62436;BME280;48480;50.252;18.848;2023-05-15T02:25:05;97914.80;;;12.50;84.12
62436;BME280;48480;50.252;18.848;2023-05-15T02:27:54;97910.36;;;12.50;84.16
62436;BME280;48480;50.252;18.848;2023-05-15T02:30:45;97901.59;;;12.50;84.04
62436;BME280;48480;50.252;18.848;2023-05-15T02:33:58;97897.67;;;12.47;84.23
62436;BME280;48480;50.252;18.848;2023-05-15T02:36:46;97893.54;;;12.42;84.33
62436;BME280;48480;50.252;18.848;2023-05-15T02:39:33;97889.63;;;12.39;84.44
62436;BME280;48480;50.252;18.848;2023-05-15T02:42:18;97883.48;;;12.34;84.62
62436;BME280;48480;50.252;18.848;2023-05-15T02:45:05;97886.80;;;12.40;84.76
62436;BME280;48480;50.252;18.848;2023-05-15T02:47:51;97887.61;;;12.44;84.91
62436;BME280;48480;50.252;18.848;2023-05-15T02:50:35;97887.27;;;12.46;84.60
62436;BME280;48480;50.252;18.848;2023-05-15T02:53:20;97884.67;;;12.46;84.77
62436;BME280;48480;50.252;18.848;2023-05-15T02:56:05;97878.91;;;12.44;84.81
62436;BME280;48480;50.252;18.848;2023-05-15T02:58:50;97880.09;;;12.39;85.00
62436;BME280;48480;50.252;18.848;2023-05-15T03:01:34;97876.73;;;12.42;85.79
62436;BME280;48480;50.252;18.848;2023-05-15T03:04:19;97872.17;;;12.51;85.85
62436;BME280;48480;50.252;18.848;2023-05-15T03:07:03;97866.92;;;12.52;85.23
62436;BME280;48480;50.252;18.848;2023-05-15T03:09:48;97862.52;;;12.52;85.36
62436;BME280;48480;50.252;18.848;2023-05-15T03:12:33;97862.67;;;12.52;85.36
62436;BME280;48480;50.252;18.848;2023-05-15T03:15:17;97866.45;;;12.49;85.28
62436;BME280;48480;50.252;18.848;2023-05-15T03:18:02;97871.63;;;12.50;85.26
62436;BME280;48480;50.252;18.848;2023-05-15T03:20:46;97865.98;;;12.51;85.37
62436;BME280;48480;50.252;18.848;2023-05-15T03:23:32;97864.51;;;12.54;85.25
62436;BME280;48480;50.252;18.848;2023-05-15T03:26:16;97861.25;;;12.56;85.61
62436;BME280;48480;50.252;18.848;2023-05-15T03:29:00;97862.30;;;12.57;85.59
62436;BME280;48480;50.252;18.848;2023-05-15T03:31:45;97858.79;;;12.56;85.46
62436;BME280;48480;50.252;18.848;2023-05-15T03:34:29;97855.88;;;12.56;85.61
62436;BME280;48480;50.252;18.848;2023-05-15T03:37:14;97850.65;;;12.56;85.72
62436;BME280;48480;50.252;18.848;2023-05-15T03:39:58;97841.07;;;12.57;85.59
62436;BME280;48480;50.252;18.848;2023-05-15T03:42:42;97836.66;;;12.56;85.56
62436;BME280;48480;50.252;18.848;2023-05-15T03:45:26;97835.73;;;12.53;85.65
62436;BME280;48480;50.252;18.848;2023-05-15T03:48:10;97833.13;;;12.50;85.78
62436;BME280;48480;50.252;18.848;2023-05-15T03:50:55;97829.63;;;12.45;85.77
62436;BME280;48480;50.252;18.848;2023-05-15T03:53:39;97828.27;;;12.41;86.12
62436;BME280;48480;50.252;18.848;2023-05-15T03:56:23;97830.34;;;12.40;86.01
62436;BME280;48480;50.252;18.848;2023-05-15T03:59:07;97826.80;;;12.38;86.19
62436;BME280;48480;50.252;18.848;2023-05-15T04:01:51;97817.46;;;12.31;86.43
62436;BME280;48480;50.252;18.848;2023-05-15T04:04:35;97823.00;;;12.33;86.64
62436;BME280;48480;50.252;18.848;2023-05-15T04:07:21;97820.04;;;12.32;86.76
62436;BME280;48480;50.252;18.848;2023-05-15T04:10:06;97821.11;;;12.29;86.94
62436;BME280;48480;50.252;18.848;2023-05-15T04:12:50;97823.20;;;12.27;87.40
62436;BME280;48480;50.252;18.848;2023-05-15T04:15:35;97821.73;;;12.32;87.63
62436;BME280;48480;50.252;18.848;2023-05-15T04:18:19;97821.34;;;12.35;87.59
62436;BME280;48480;50.252;18.848;2023-05-15T04:21:03;97824.74;;;12.38;87.50
62436;BME280;48480;50.252;18.848;2023-05-15T04:23:47;97821.48;;;12.34;87.27
62436;BME280;48480;50.252;18.848;2023-05-15T04:26:32;97832.69;;;12.42;87.65
62436;BME280;48480;50.252;18.848;2023-05-15T04:29:16;97831.20;;;12.48;87.65
62436;BME280;48480;50.252;18.848;2023-05-15T04:32:00;97832.20;;;12.50;87.52
62436;BME280;48480;50.252;18.848;2023-05-15T04:34:45;97829.57;;;12.52;87.47
62436;BME280;48480;50.252;18.848;2023-05-15T04:37:30;97821.33;;;12.54;87.40
62436;BME280;48480;50.252;18.848;2023-05-15T04:40:14;97817.94;;;12.57;87.33
62436;BME280;48480;50.252;18.848;2023-05-15T04:42:59;97816.38;;;12.59;87.13
62436;BME280;48480;50.252;18.848;2023-05-15T04:45:44;97810.63;;;12.60;87.26
62436;BME280;48480;50.252;18.848;2023-05-15T04:48:28;97807.81;;;12.60;87.38
62436;BME280;48480;50.252;18.848;2023-05-15T04:51:12;97802.55;;;12.62;87.56
62436;BME280;48480;50.252;18.848;2023-05-15T04:53:56;97799.50;;;12.66;87.55
62436;BME280;48480;50.252;18.848;2023-05-15T04:56:40;97787.86;;;12.65;87.21
62436;BME280;48480;50.252;18.848;2023-05-15T04:59:25;97792.45;;;12.71;87.33
62436;BME280;48480;50.252;18.848;2023-05-15T05:02:11;97791.49;;;12.75;87.66
62436;BME280;48480;50.252;18.848;2023-05-15T05:04:56;97788.04;;;12.80;87.67
62436;BME280;48480;50.252;18.848;2023-05-15T05:07:40;97786.85;;;12.82;87.26
62436;BME280;48480;50.252;18.848;2023-05-15T05:10:25;97782.83;;;12.84;87.37
62436;BME280;48480;50.252;18.848;2023-05-15T05:13:09;97781.69;;;12.89;87.31
62436;BME280;48480;50.252;18.848;2023-05-15T05:15:53;97780.83;;;12.91;87.02
62436;BME280;48480;50.252;18.848;2023-05-15T05:18:37;97773.91;;;12.92;86.82
62436;BME280;48480;50.252;18.848;2023-05-15T05:21:22;97773.70;;;12.92;86.94
62436;BME280;48480;50.252;18.848;2023-05-15T05:24:06;97764.77;;;12.92;87.13
62436;BME280;48480;50.252;18.848;2023-05-15T05:26:50;97766.05;;;12.94;87.03
62436;BME280;48480;50.252;18.848;2023-05-15T05:29:34;97766.52;;;12.97;87.22
62436;BME280;48480;50.252;18.848;2023-05-15T05:32:18;97769.10;;;13.02;87.15
62436;BME280;48480;50.252;18.848;2023-05-15T05:35:02;97773.20;;;13.07;87.34
62436;BME280;48480;50.252;18.848;2023-05-15T05:37:47;97770.73;;;13.13;87.32
62436;BME280;48480;50.252;18.848;2023-05-15T05:40:31;97771.34;;;13.19;87.42
62436;BME280;48480;50.252;18.848;2023-05-15T05:43:15;97772.23;;;13.20;86.97
62436;BME280;48480;50.252;18.848;2023-05-15T05:46:00;97771.63;;;13.21;86.81
62436;BME280;48480;50.252;18.848;2023-05-15T05:48:44;97772.31;;;13.21;86.55
62436;BME280;48480;50.252;18.848;2023-05-15T05:51:29;97771.21;;;13.23;86.85
62436;BME280;48480;50.252;18.848;2023-05-15T05:54:14;97767.59;;;13.22;86.19
62436;BME280;48480;50.252;18.848;2023-05-15T05:56:59;97765.56;;;13.21;86.11
62436;BME280;48480;50.252;18.848;2023-05-15T05:59:44;97761.89;;;13.22;86.66
62436;BME280;48480;50.252;18.848;2023-05-15T06:02:28;97759.14;;;13.27;86.62
62436;BME280;48480;50.252;18.848;2023-05-15T06:05:12;97758.69;;;13.31;86.47
62436;BME280;48480;50.252;18.848;2023-05-15T06:07:57;97756.98;;;13.32;86.44
62436;BME280;48480;50.252;18.848;2023-05-15T06:10:44;97759.44;;;13.32;86.28
62436;BME280;48480;50.252;18.848;2023-05-15T06:13:29;97761.02;;;13.31;86.08
62436;BME280;48480;50.252;18.848;2023-05-15T06:16:13;97765.83;;;13.32;86.27
62436;BME280;48480;50.252;18.848;2023-05-15T06:18:57;97764.90;;;13.32;86.25
62436;BME280;48480;50.252;18.848;2023-05-15T06:21:41;97758.50;;;13.31;86.46
62436;BME280;48480;50.252;18.848;2023-05-15T06:24:25;97753.83;;;13.36;86.49
62436;BME280;48480;50.252;18.848;2023-05-15T06:27:10;97753.45;;;13.39;86.56
62436;BME280;48480;50.252;18.848;2023-05-15T06:29:54;97759.29;;;13.46;86.74
62436;BME280;48480;50.252;18.848;2023-05-15T06:32:39;97757.15;;;13.50;86.41
62436;BME280;48480;50.252;18.848;2023-05-15T06:35:23;97758.30;;;13.53;86.64
62436;BME280;48480;50.252;18.848;2023-05-15T06:38:07;97755.02;;;13.58;86.77
62436;BME280;48480;50.252;18.848;2023-05-15T06:40:51;97755.35;;;13.63;86.74
62436;BME280;48480;50.252;18.848;2023-05-15T06:43:35;97754.44;;;13.67;86.32
62436;BME280;48480;50.252;18.848;2023-05-15T06:46:19;97751.85;;;13.72;85.87
62436;BME280;48480;50.252;18.848;2023-05-15T06:49:04;97744.50;;;13.74;86.06
62436;BME280;48480;50.252;18.848;2023-05-15T06:51:48;97748.20;;;13.78;85.92
62436;BME280;48480;50.252;18.848;2023-05-15T06:54:33;97744.73;;;13.81;85.75
62436;BME280;48480;50.252;18.848;2023-05-15T06:57:18;97744.27;;;13.85;85.53
62436;BME280;48480;50.252;18.848;2023-05-15T07:00:03;97744.17;;;13.88;85.50
62436;BME280;48480;50.252;18.848;2023-05-15T07:02:48;97750.63;;;13.92;85.61
62436;BME280;48480;50.252;18.848;2023-05-15T07:05:32;97750.27;;;13.89;84.97
62436;BME280;48480;50.252;18.848;2023-05-15T07:08:16;97748.09;;;13.83;85.15
62436;BME280;48480;50.252;18.848;2023-05-15T07:11:00;97745.73;;;13.81;85.22
62436;BME280;48480;50.252;18.848;2023-05-15T07:13:45;97746.41;;;13.81;85.68
62436;BME280;48480;50.252;18.848;2023-05-15T07:16:29;97749.45;;;13.87;86.10
62436;BME280;48480;50.252;18.848;2023-05-15T07:19:17;97748.73;;;13.89;85.37
62436;BME280;48480;50.252;18.848;2023-05-15T07:22:03;97749.04;;;13.89;85.42
62436;BME280;48480;50.252;18.848;2023-05-15T07:24:48;97742.60;;;13.91;85.40
62436;BME280;48480;50.252;18.848;2023-05-15T07:27:32;97738.42;;;13.93;85.65
62436;BME280;48480;50.252;18.848;2023-05-15T07:30:16;97732.90;;;13.94;85.25
62436;BME280;48480;50.252;18.848;2023-05-15T07:33:00;97734.95;;;13.90;85.20
62436;BME280;48480;50.252;18.848;2023-05-15T07:35:44;97737.39;;;13.88;85.15
62436;BME280;48480;50.252;18.848;2023-05-15T07:38:28;97737.17;;;13.85;85.33
62436;BME280;48480;50.252;18.848;2023-05-15T07:41:12;97738.11;;;13.82;85.46
62436;BME280;48480;50.252;18.848;2023-05-15T07:43:56;97736.52;;;13.83;85.75
62436;BME280;48480;50.252;18.848;2023-05-15T07:46:40;97735.23;;;13.88;85.52
62436;BME280;48480;50.252;18.848;2023-05-15T07:49:24;97737.27;;;13.93;85.52
62436;BME280;48480;50.252;18.848;2023-05-15T07:52:08;97743.06;;;13.98;85.58
62436;BME280;48480;50.252;18.848;2023-05-15T07:54:52;97736.58;;;14.01;85.39
62436;BME280;48480;50.252;18.848;2023-05-15T07:57:37;97740.63;;;14.03;85.39
62436;BME280;48480;50.252;18.848;2023-05-15T08:00:22;97742.89;;;14.05;85.27
62436;BME280;48480;50.252;18.848;2023-05-15T08:03:06;97742.38;;;14.02;85.47
62436;BME280;48480;50.252;18.848;2023-05-15T08:05:51;97747.43;;;14.05;85.37
62436;BME280;48480;50.252;18.848;2023-05-15T08:08:35;97746.10;;;14.08;85.50
62436;BME280;48480;50.252;18.848;2023-05-15T08:11:19;97745.61;;;14.10;85.56
62436;BME280;48480;50.252;18.848;2023-05-15T08:14:04;97747.96;;;14.13;85.22
62436;BME280;48480;50.252;18.848;2023-05-15T08:16:49;97750.00;;;14.15;85.96
62436;BME280;48480;50.252;18.848;2023-05-15T08:19:34;97747.83;;;14.17;86.04
62436;BME280;48480;50.252;18.848;2023-05-15T08:22:18;97746.55;;;14.19;86.10
62436;BME280;48480;50.252;18.848;2023-05-15T08:25:02;97745.65;;;14.25;85.67
62436;BME280;48480;50.252;18.848;2023-05-15T08:27:47;97748.21;;;14.26;85.27
62436;BME280;48480;50.252;18.848;2023-05-15T08:30:31;97749.79;;;14.23;85.18
62436;BME280;48480;50.252;18.848;2023-05-15T08:33:15;97749.52;;;14.25;85.82
62436;BME280;48480;50.252;18.848;2023-05-15T08:36:00;97745.95;;;14.28;86.13
62436;BME280;48480;50.252;18.848;2023-05-15T08:38:45;97750.39;;;14.35;86.12
62436;BME280;48480;50.252;18.848;2023-05-15T08:41:37;97750.81;;;14.41;85.96
62436;BME280;48480;50.252;18.848;2023-05-15T08:44:23;97749.81;;;14.46;85.89
62436;BME280;48480;50.252;18.848;2023-05-15T08:47:08;97746.15;;;14.48;85.73
62436;BME280;48480;50.252;18.848;2023-05-15T08:52:55;97755.79;;;14.63;85.35
62436;BME280;48480;50.252;18.848;2023-05-15T08:55:42;97754.98;;;14.65;84.91
62436;BME280;48480;50.252;18.848;2023-05-15T08:58:27;97758.46;;;14.67;84.77
62436;BME280;48480;50.252;18.848;2023-05-15T09:01:12;97758.36;;;14.69;84.99
62436;BME280;48480;50.252;18.848;2023-05-15T09:03:58;97760.39;;;14.71;84.74
62436;BME280;48480;50.252;18.848;2023-05-15T09:06:43;97754.41;;;14.69;84.48
62436;BME280;48480;50.252;18.848;2023-05-15T09:09:28;97760.20;;;14.65;84.37
62436;BME280;48480;50.252;18.848;2023-05-15T09:12:14;97763.88;;;14.59;84.77
62436;BME280;48480;50.252;18.848;2023-05-15T09:15:10;97764.05;;;14.56;85.15
62436;BME280;48480;50.252;18.848;2023-05-15T09:17:55;97773.30;;;14.52;85.01
62436;BME280;48480;50.252;18.848;2023-05-15T09:20:39;97772.67;;;14.43;84.95
62436;BME280;48480;50.252;18.848;2023-05-15T09:23:26;97777.79;;;14.37;85.04
62436;BME280;48480;50.252;18.848;2023-05-15T09:26:11;97779.45;;;14.30;85.10
62436;BME280;48480;50.252;18.848;2023-05-15T09:29:01;97777.27;;;14.25;84.95
62436;BME280;48480;50.252;18.848;2023-05-15T09:31:45;97774.03;;;14.17;85.07
62436;BME280;48480;50.252;18.848;2023-05-15T09:34:33;97777.45;;;14.11;85.42
62436;BME280;48480;50.252;18.848;2023-05-15T09:37:31;97776.53;;;14.08;85.89
62436;BME280;48480;50.252;18.848;2023-05-15T09:40:17;97776.67;;;14.08;85.67
62436;BME280;48480;50.252;18.848;2023-05-15T09:43:01;97775.54;;;14.08;85.72
62436;BME280;48480;50.252;18.848;2023-05-15T09:45:46;97774.94;;;14.10;86.07
62436;BME280;48480;50.252;18.848;2023-05-15T09:48:31;97778.80;;;14.13;85.92
62436;BME280;48480;50.252;18.848;2023-05-15T09:51:18;97782.21;;;14.15;85.86
62436;BME280;48480;50.252;18.848;2023-05-15T09:54:02;97783.23;;;14.19;86.33
62436;BME280;48480;50.252;18.848;2023-05-15T09:56:47;97784.81;;;14.25;86.03
62436;BME280;48480;50.252;18.848;2023-05-15T09:59:31;97787.94;;;14.32;86.00
62436;BME280;48480;50.252;18.848;2023-05-15T10:02:25;97788.41;;;14.40;85.84
62436;BME280;48480;50.252;18.848;2023-05-15T10:05:15;97782.87;;;14.49;85.88
62436;BME280;48480;50.252;18.848;2023-05-15T10:07:59;97782.07;;;14.58;85.49
62436;BME280;48480;50.252;18.848;2023-05-15T10:10:44;97780.91;;;14.71;85.63
62436;BME280;48480;50.252;18.848;2023-05-15T10:13:31;97777.38;;;14.90;85.61
62436;BME280;48480;50.252;18.848;2023-05-15T10:16:19;97784.71;;;15.04;84.67
62436;BME280;48480;50.252;18.848;2023-05-15T10:19:10;97791.08;;;15.11;84.34
62436;BME280;48480;50.252;18.848;2023-05-15T10:21:54;97792.46;;;15.16;84.21
62436;BME280;48480;50.252;18.848;2023-05-15T10:24:41;97792.89;;;15.13;82.98
62436;BME280;48480;50.252;18.848;2023-05-15T10:27:29;97800.42;;;15.12;83.29
62436;BME280;48480;50.252;18.848;2023-05-15T10:30:18;97803.31;;;15.09;82.58
62436;BME280;48480;50.252;18.848;2023-05-15T10:33:05;97803.50;;;15.02;82.16
62436;BME280;48480;50.252;18.848;2023-05-15T10:35:49;97806.38;;;14.98;82.16
62436;BME280;48480;50.252;18.848;2023-05-15T10:38:35;97808.64;;;14.95;82.26
62436;BME280;48480;50.252;18.848;2023-05-15T10:41:21;97813.32;;;14.94;81.85
62436;BME280;48480;50.252;18.848;2023-05-15T10:44:07;97802.93;;;14.96;81.96
62436;BME280;48480;50.252;18.848;2023-05-15T10:46:51;97799.52;;;15.04;82.72
62436;BME280;48480;50.252;18.848;2023-05-15T10:49:35;97799.58;;;15.12;82.52
62436;BME280;48480;50.252;18.848;2023-05-15T10:52:19;97797.20;;;15.22;82.00
62436;BME280;48480;50.252;18.848;2023-05-15T10:55:15;97794.55;;;15.26;82.10
62436;BME280;48480;50.252;18.848;2023-05-15T10:58:01;97793.43;;;15.33;81.81
62436;BME280;48480;50.252;18.848;2023-05-15T11:00:45;97792.77;;;15.41;81.67
62436;BME280;48480;50.252;18.848;2023-05-15T11:03:36;97793.37;;;15.45;81.29
62436;BME280;48480;50.252;18.848;2023-05-15T11:06:27;97792.09;;;15.53;81.17
62436;BME280;48480;50.252;18.848;2023-05-15T11:12:10;97782.37;;;15.97;81.04
62436;BME280;48480;50.252;18.848;2023-05-15T11:18:01;97775.85;;;16.41;78.55
62436;BME280;48480;50.252;18.848;2023-05-15T11:23:39;97758.93;;;16.67;76.62
62436;BME280;48480;50.252;18.848;2023-05-15T11:26:33;97764.25;;;16.72;76.85
62436;BME280;48480;50.252;18.848;2023-05-15T11:29:18;97762.89;;;16.76;76.69
62436;BME280;48480;50.252;18.848;2023-05-15T11:32:02;97754.58;;;16.80;76.23
62436;BME280;48480;50.252;18.848;2023-05-15T11:34:48;97753.98;;;16.87;75.29
62436;BME280;48480;50.252;18.848;2023-05-15T11:37:36;97745.90;;;16.94;74.99
62436;BME280;48480;50.252;18.848;2023-05-15T11:40:23;97736.48;;;17.08;74.86
62436;BME280;48480;50.252;18.848;2023-05-15T11:43:25;97737.58;;;17.30;74.46
62436;BME280;48480;50.252;18.848;2023-05-15T11:46:10;97732.62;;;17.42;73.37
62436;BME280;48480;50.252;18.848;2023-05-15T11:48:57;97733.05;;;17.50;71.58
62436;BME280;48480;50.252;18.848;2023-05-15T11:51:41;97729.84;;;17.57;71.50
62436;BME280;48480;50.252;18.848;2023-05-15T11:54:26;97730.09;;;17.63;71.20
62436;BME280;48480;50.252;18.848;2023-05-15T11:57:11;97729.96;;;17.66;70.53
62436;BME280;48480;50.252;18.848;2023-05-15T11:59:55;97727.52;;;17.59;69.78
62436;BME280;48480;50.252;18.848;2023-05-15T12:02:39;97729.02;;;17.50;69.52
62436;BME280;48480;50.252;18.848;2023-05-15T12:05:23;97728.55;;;17.49;70.63
62436;BME280;48480;50.252;18.848;2023-05-15T12:08:11;97730.45;;;17.54;69.90
62436;BME280;48480;50.252;18.848;2023-05-15T12:10:57;97728.75;;;17.55;69.32
62436;BME280;48480;50.252;18.848;2023-05-15T12:13:41;97730.12;;;17.53;69.14
62436;BME280;48480;50.252;18.848;2023-05-15T12:16:26;97730.85;;;17.46;68.93
62436;BME280;48480;50.252;18.848;2023-05-15T12:19:10;97731.02;;;17.46;69.53
62436;BME280;48480;50.252;18.848;2023-05-15T12:21:54;97734.42;;;17.48;69.22
62436;BME280;48480;50.252;18.848;2023-05-15T12:24:38;97729.98;;;17.42;69.41
62436;BME280;48480;50.252;18.848;2023-05-15T12:27:23;97726.14;;;17.35;69.68
62436;BME280;48480;50.252;18.848;2023-05-15T12:30:08;97719.33;;;17.25;69.29
62436;BME280;48480;50.252;18.848;2023-05-15T12:32:59;97723.83;;;17.13;69.54
62436;BME280;48480;50.252;18.848;2023-05-15T12:35:50;97718.65;;;17.03;70.24
62436;BME280;48480;50.252;18.848;2023-05-15T12:38:36;97720.04;;;17.01;70.72
62436;BME280;48480;50.252;18.848;2023-05-15T12:41:20;97723.59;;;17.01;70.15
62436;BME280;48480;50.252;18.848;2023-05-15T12:44:04;97721.79;;;17.07;70.30
62436;BME280;48480;50.252;18.848;2023-05-15T12:46:53;97720.29;;;17.16;69.83
62436;BME280;48480;50.252;18.848;2023-05-15T12:49:39;97732.46;;;17.30;69.44
62436;BME280;48480;50.252;18.848;2023-05-15T12:52:27;97734.79;;;17.42;68.01
62436;BME280;48480;50.252;18.848;2023-05-15T12:55:24;97740.09;;;17.48;65.97
62436;BME280;48480;50.252;18.848;2023-05-15T12:58:11;97736.08;;;17.52;65.87
62436;BME280;48480;50.252;18.848;2023-05-15T13:00:55;97739.34;;;17.53;65.34
62436;BME280;48480;50.252;18.848;2023-05-15T13:03:41;97743.42;;;17.49;63.89
62436;BME280;48480;50.252;18.848;2023-05-15T13:06:26;97740.42;;;17.41;63.51
62436;BME280;48480;50.252;18.848;2023-05-15T13:09:11;97745.16;;;17.28;63.71
62436;BME280;48480;50.252;18.848;2023-05-15T13:11:55;97743.84;;;17.19;63.74
62436;BME280;48480;50.252;18.848;2023-05-15T13:14:41;97741.23;;;17.11;63.93
62436;BME280;48480;50.252;18.848;2023-05-15T13:17:29;97746.83;;;17.03;63.95
62436;BME280;48480;50.252;18.848;2023-05-15T13:20:13;97747.67;;;16.94;63.84
62436;BME280;48480;50.252;18.848;2023-05-15T13:22:58;97749.77;;;16.85;64.26
62436;BME280;48480;50.252;18.848;2023-05-15T13:25:43;97749.48;;;16.80;64.18
62436;BME280;48480;50.252;18.848;2023-05-15T13:28:27;97752.85;;;16.69;63.44
62436;BME280;48480;50.252;18.848;2023-05-15T13:31:11;97746.81;;;16.60;63.56
62436;BME280;48480;50.252;18.848;2023-05-15T13:33:55;97748.78;;;16.56;64.10
62436;BME280;48480;50.252;18.848;2023-05-15T13:36:39;97746.63;;;16.58;63.94
62436;BME280;48480;50.252;18.848;2023-05-15T13:39:23;97745.14;;;16.55;63.53
62436;BME280;48480;50.252;18.848;2023-05-15T13:42:07;97751.02;;;16.55;63.62
62436;BME280;48480;50.252;18.848;2023-05-15T13:44:51;97748.80;;;16.58;63.55
62436;BME280;48480;50.252;18.848;2023-05-15T13:47:36;97746.98;;;16.62;63.27
62436;BME280;48480;50.252;18.848;2023-05-15T13:50:22;97747.10;;;16.74;62.98
62436;BME280;48480;50.252;18.848;2023-05-15T13:53:07;97744.07;;;16.97;62.59
62436;BME280;48480;50.252;18.848;2023-05-15T13:55:51;97748.43;;;17.09;62.29
62436;BME280;48480;50.252;18.848;2023-05-15T13:58:35;97746.81;;;17.12;61.55
62436;BME280;48480;50.252;18.848;2023-05-15T14:01:19;97740.37;;;17.10;61.45
62436;BME280;48480;50.252;18.848;2023-05-15T14:04:03;97737.03;;;17.09;61.94
62436;BME280;48480;50.252;18.848;2023-05-15T14:06:47;97736.91;;;17.03;61.90
62436;BME280;48480;50.252;18.848;2023-05-15T14:09:31;97748.19;;;17.09;62.30
62436;BME280;48480;50.252;18.848;2023-05-15T14:12:15;97743.61;;;17.08;62.01
62436;BME280;48480;50.252;18.848;2023-05-15T14:14:59;97734.02;;;17.10;62.21
62436;BME280;48480;50.252;18.848;2023-05-15T14:17:43;97752.65;;;17.27;62.16
62436;BME280;48480;50.252;18.848;2023-05-15T14:20:30;97747.55;;;17.40;62.38
62436;BME280;48480;50.252;18.848;2023-05-15T14:23:14;97750.05;;;17.56;61.94
62436;BME280;48480;50.252;18.848;2023-05-15T14:25:58;97750.19;;;17.67;61.23
62436;BME280;48480;50.252;18.848;2023-05-15T14:28:42;97756.73;;;17.75;60.62
62436;BME280;48480;50.252;18.848;2023-05-15T14:31:26;97756.83;;;17.78;60.15
62436;BME280;48480;50.252;18.848;2023-05-15T14:34:10;97759.63;;;17.79;59.79
62436;BME280;48480;50.252;18.848;2023-05-15T14:36:55;97764.77;;;17.82;59.59
62436;BME280;48480;50.252;18.848;2023-05-15T14:39:39;97765.02;;;17.84;60.03